sensor_id;sensor_type;location;lat;lon;timestamp;temperature;humidity
62424;DHT22;48463;43.604;3.872;2023-08-06T00:00:22;21.10;92.90
62424;DHT22;48463;43.604;3.872;2023-08-06T00:02:48;21.00;93.20
62424;DHT22;48463;43.604;3.872;2023-08-06T00:05:13;21.10;93.30
62424;DHT22;48463;43.604;3.872;2023-08-06T00:07:39;21.00;93.50
62424;DHT22;48463;43.604;3.872;2023-08-06T00:10:05;21.00;93.60
62424;DHT22;48463;43.604;3.872;2023-08-06T00:12:31;21.00;93.70
62424;DHT22;48463;43.604;3.872;2023-08-06T00:14:56;20.90;93.90
62424;DHT22;48463;43.604;3.872;2023-08-06T00:17:22;20.80;94.00
62424;DHT22;48463;43.604;3.872;2023-08-06T00:19:48;20.80;94.20
62424;DHT22;48463;43.604;3.872;2023-08-06T00:22:13;20.80;94.30
62424;DHT22;48463;43.604;3.872;2023-08-06T00:24:39;20.80;94.60
62424;DHT22;48463;43.604;3.872;2023-08-06T00:27:05;20.70;94.70
62424;DHT22;48463;43.604;3.872;2023-08-06T00:29:30;20.70;95.00
62424;DHT22;48463;43.604;3.872;2023-08-06T00:31:56;20.60;95.10
62424;DHT22;48463;43.604;3.872;2023-08-06T00:34:21;20.60;95.30
62424;DHT22;48463;43.604;3.872;2023-08-06T00:36:47;20.50;95.70
62424;DHT22;48463;43.604;3.872;2023-08-06T00:39:13;20.50;95.60
62424;DHT22;48463;43.604;3.872;2023-08-06T00:41:39;20.50;96.00
62424;DHT22;48463;43.604;3.872;2023-08-06T00:44:04;20.40;95.90
62424;DHT22;48463;43.604;3.872;2023-08-06T00:46:31;20.40;96.00
62424;DHT22;48463;43.604;3.872;2023-08-06T00:48:57;20.50;96.10
62424;DHT22;48463;43.604;3.872;2023-08-06T00:51:22;20.40;96.40
62424;DHT22;48463;43.604;3.872;2023-08-06T00:53:50;20.40;96.50
62424;DHT22;48463;43.604;3.872;2023-08-06T00:56:16;20.30;96.80
62424;DHT22;48463;43.604;3.872;2023-08-06T00:58:42;20.30;97.00
62424;DHT22;48463;43.604;3.872;2023-08-06T01:01:08;20.30;97.20
62424;DHT22;48463;43.604;3.872;2023-08-06T01:03:33;20.20;97.50
62424;DHT22;48463;43.604;3.872;2023-08-06T01:06:00;20.20;97.90
62424;DHT22;48463;43.604;3.872;2023-08-06T01:13:42;20.00;99.00
62424;DHT22;48463;43.604;3.872;2023-08-06T01:16:10;20.00;99.40
62424;DHT22;48463;43.604;3.872;2023-08-06T01:18:36;19.90;99.80
62424;DHT22;48463;43.604;3.872;2023-08-06T01:21:04;19.90;99.90
62424;DHT22;48463;43.604;3.872;2023-08-06T01:23:30;19.90;99.90
62424;DHT22;48463;43.604;3.872;2023-08-06T01:26:19;19.90;99.90
62424;DHT22;48463;43.604;3.872;2023-08-06T01:31:30;19.80;99.90
62424;DHT22;48463;43.604;3.872;2023-08-06T01:33:58;19.80;99.90
62424;DHT22;48463;43.604;3.872;2023-08-06T01:36:25;19.70;99.90
62424;DHT22;48463;43.604;3.872;2023-08-06T01:38:54;19.70;99.90
62424;DHT22;48463;43.604;3.872;2023-08-06T01:41:20;19.70;99.90
62424;DHT22;48463;43.604;3.872;2023-08-06T01:43:45;19.60;99.90
62424;DHT22;48463;43.604;3.872;2023-08-06T01:46:11;19.60;99.90
62424;DHT22;48463;43.604;3.872;2023-08-06T01:48:37;19.70;99.90
62424;DHT22;48463;43.604;3.872;2023-08-06T01:51:05;19.70;99.90
62424;DHT22;48463;43.604;3.872;2023-08-06T01:53:31;19.70;99.90
62424;DHT22;48463;43.604;3.872;2023-08-06T01:55:57;19.80;99.90
62424;DHT22;48463;43.604;3.872;2023-08-06T01:58:23;19.80;99.90
62424;DHT22;48463;43.604;3.872;2023-08-06T02:00:49;19.80;99.90
62424;DHT22;48463;43.604;3.872;2023-08-06T02:03:14;19.90;98.50
62424;DHT22;48463;43.604;3.872;2023-08-06T02:05:40;20.00;97.90
62424;DHT22;48463;43.604;3.872;2023-08-06T02:08:06;20.00;97.50
62424;DHT22;48463;43.604;3.872;2023-08-06T02:10:32;19.90;97.30
62424;DHT22;48463;43.604;3.872;2023-08-06T02:12:57;20.00;96.90
62424;DHT22;48463;43.604;3.872;2023-08-06T02:15:23;20.00;96.40
62424;DHT22;48463;43.604;3.872;2023-08-06T02:17:48;20.10;95.70
62424;DHT22;48463;43.604;3.872;2023-08-06T02:20:14;20.10;95.50
62424;DHT22;48463;43.604;3.872;2023-08-06T02:22:40;20.00;95.40
62424;DHT22;48463;43.604;3.872;2023-08-06T02:25:05;20.00;95.30
62424;DHT22;48463;43.604;3.872;2023-08-06T02:27:31;20.00;95.30
62424;DHT22;48463;43.604;3.872;2023-08-06T02:29:57;19.90;95.20
62424;DHT22;48463;43.604;3.872;2023-08-06T02:32:22;19.90;95.00
62424;DHT22;48463;43.604;3.872;2023-08-06T02:34:48;19.90;94.90
62424;DHT22;48463;43.604;3.872;2023-08-06T02:37:13;19.80;94.80
62424;DHT22;48463;43.604;3.872;2023-08-06T02:39:39;19.80;94.70
62424;DHT22;48463;43.604;3.872;2023-08-06T02:42:08;19.80;94.70
62424;DHT22;48463;43.604;3.872;2023-08-06T02:44:34;19.70;94.70
62424;DHT22;48463;43.604;3.872;2023-08-06T02:47:00;19.60;94.80
62424;DHT22;48463;43.604;3.872;2023-08-06T02:49:26;19.60;94.90
62424;DHT22;48463;43.604;3.872;2023-08-06T02:51:52;19.60;94.90
62424;DHT22;48463;43.604;3.872;2023-08-06T02:54:18;19.50;95.00
62424;DHT22;48463;43.604;3.872;2023-08-06T02:56:45;19.50;95.10
62424;DHT22;48463;43.604;3.872;2023-08-06T02:59:14;19.40;95.10
62424;DHT22;48463;43.604;3.872;2023-08-06T03:01:40;19.30;95.20
62424;DHT22;48463;43.604;3.872;2023-08-06T03:04:06;19.30;95.30
62424;DHT22;48463;43.604;3.872;2023-08-06T03:06:32;19.30;95.20
62424;DHT22;48463;43.604;3.872;2023-08-06T03:08:57;19.30;95.10
62424;DHT22;48463;43.604;3.872;2023-08-06T03:11:23;19.30;95.00
62424;DHT22;48463;43.604;3.872;2023-08-06T03:13:48;19.20;94.70
62424;DHT22;48463;43.604;3.872;2023-08-06T03:16:14;19.20;94.60
62424;DHT22;48463;43.604;3.872;2023-08-06T03:18:40;19.20;94.30
62424;DHT22;48463;43.604;3.872;2023-08-06T03:21:06;19.20;94.00
62424;DHT22;48463;43.604;3.872;2023-08-06T03:23:31;19.10;94.00
62424;DHT22;48463;43.604;3.872;2023-08-06T03:26:04;19.10;93.90
62424;DHT22;48463;43.604;3.872;2023-08-06T03:28:30;19.10;93.50
62424;DHT22;48463;43.604;3.872;2023-08-06T03:31:02;19.10;92.60
62424;DHT22;48463;43.604;3.872;2023-08-06T03:33:28;19.00;92.00
62424;DHT22;48463;43.604;3.872;2023-08-06T03:35:54;19.00;92.00
62424;DHT22;48463;43.604;3.872;2023-08-06T03:38:20;19.00;91.70
62424;DHT22;48463;43.604;3.872;2023-08-06T03:40:46;19.00;91.60
62424;DHT22;48463;43.604;3.872;2023-08-06T03:43:12;19.00;91.60
62424;DHT22;48463;43.604;3.872;2023-08-06T03:45:37;19.00;91.50
62424;DHT22;48463;43.604;3.872;2023-08-06T03:48:03;19.00;91.50
62424;DHT22;48463;43.604;3.872;2023-08-06T03:50:29;19.00;91.60
62424;DHT22;48463;43.604;3.872;2023-08-06T03:52:55;18.90;91.80
62424;DHT22;48463;43.604;3.872;2023-08-06T03:55:20;18.90;92.10
62424;DHT22;48463;43.604;3.872;2023-08-06T03:57:46;18.80;92.30
62424;DHT22;48463;43.604;3.872;2023-08-06T04:00:12;18.80;92.40
62424;DHT22;48463;43.604;3.872;2023-08-06T04:02:38;18.80;92.60
62424;DHT22;48463;43.604;3.872;2023-08-06T04:05:04;18.80;92.90
62424;DHT22;48463;43.604;3.872;2023-08-06T04:07:30;18.70;93.00
62424;DHT22;48463;43.604;3.872;2023-08-06T04:10:01;18.70;93.30
62424;DHT22;48463;43.604;3.872;2023-08-06T04:12:27;18.70;93.40
62424;DHT22;48463;43.604;3.872;2023-08-06T04:14:54;18.60;93.70
62424;DHT22;48463;43.604;3.872;2023-08-06T04:17:22;18.60;94.00
62424;DHT22;48463;43.604;3.872;2023-08-06T04:19:53;18.60;94.20
62424;DHT22;48463;43.604;3.872;2023-08-06T04:22:20;18.50;94.50
62424;DHT22;48463;43.604;3.872;2023-08-06T04:24:46;18.40;94.70
62424;DHT22;48463;43.604;3.872;2023-08-06T04:27:12;18.40;95.00
62424;DHT22;48463;43.604;3.872;2023-08-06T04:29:38;18.40;95.30
62424;DHT22;48463;43.604;3.872;2023-08-06T04:32:06;18.30;95.50
62424;DHT22;48463;43.604;3.872;2023-08-06T04:34:32;18.40;95.50
62424;DHT22;48463;43.604;3.872;2023-08-06T04:36:59;18.30;95.60
62424;DHT22;48463;43.604;3.872;2023-08-06T04:39:25;18.40;95.40
62424;DHT22;48463;43.604;3.872;2023-08-06T04:41:50;18.30;95.30
62424;DHT22;48463;43.604;3.872;2023-08-06T04:44:16;18.30;95.20
62424;DHT22;48463;43.604;3.872;2023-08-06T04:46:42;18.30;94.80
62424;DHT22;48463;43.604;3.872;2023-08-06T04:49:07;18.40;94.60
62424;DHT22;48463;43.604;3.872;2023-08-06T04:51:33;18.40;94.40
62424;DHT22;48463;43.604;3.872;2023-08-06T04:53:58;18.40;94.10
62424;DHT22;48463;43.604;3.872;2023-08-06T04:56:24;18.50;93.80
62424;DHT22;48463;43.604;3.872;2023-08-06T04:58:50;18.50;93.30
62424;DHT22;48463;43.604;3.872;2023-08-06T05:01:16;18.60;92.90
62424;DHT22;48463;43.604;3.872;2023-08-06T05:03:41;18.60;92.70
62424;DHT22;48463;43.604;3.872;2023-08-06T05:06:07;18.60;92.40
62424;DHT22;48463;43.604;3.872;2023-08-06T05:08:33;18.60;92.20
62424;DHT22;48463;43.604;3.872;2023-08-06T05:10:59;18.60;92.20
62424;DHT22;48463;43.604;3.872;2023-08-06T05:13:24;18.60;92.30
62424;DHT22;48463;43.604;3.872;2023-08-06T05:15:51;18.50;92.70
62424;DHT22;48463;43.604;3.872;2023-08-06T05:18:18;18.50;92.80
62424;DHT22;48463;43.604;3.872;2023-08-06T05:20:44;18.50;92.80
62424;DHT22;48463;43.604;3.872;2023-08-06T05:23:10;18.50;92.70
62424;DHT22;48463;43.604;3.872;2023-08-06T05:25:36;18.50;92.30
62424;DHT22;48463;43.604;3.872;2023-08-06T05:28:02;18.60;91.80
62424;DHT22;48463;43.604;3.872;2023-08-06T05:30:28;18.70;91.30
62424;DHT22;48463;43.604;3.872;2023-08-06T05:32:54;18.70;91.10
62424;DHT22;48463;43.604;3.872;2023-08-06T05:35:21;18.70;91.10
62424;DHT22;48463;43.604;3.872;2023-08-06T05:37:46;18.70;91.10
62424;DHT22;48463;43.604;3.872;2023-08-06T05:40:12;18.70;91.30
62424;DHT22;48463;43.604;3.872;2023-08-06T05:42:38;18.70;91.50
62424;DHT22;48463;43.604;3.872;2023-08-06T05:45:04;18.80;91.70
62424;DHT22;48463;43.604;3.872;2023-08-06T05:47:29;18.70;91.80
62424;DHT22;48463;43.604;3.872;2023-08-06T05:49:55;18.80;91.90
62424;DHT22;48463;43.604;3.872;2023-08-06T05:52:21;18.80;91.90
62424;DHT22;48463;43.604;3.872;2023-08-06T05:54:46;18.80;91.90
62424;DHT22;48463;43.604;3.872;2023-08-06T05:57:12;18.80;92.00
62424;DHT22;48463;43.604;3.872;2023-08-06T05:59:37;18.70;92.00
62424;DHT22;48463;43.604;3.872;2023-08-06T06:02:03;18.80;92.10
62424;DHT22;48463;43.604;3.872;2023-08-06T06:04:29;18.90;91.80
62424;DHT22;48463;43.604;3.872;2023-08-06T06:06:55;18.90;91.60
62424;DHT22;48463;43.604;3.872;2023-08-06T06:09:20;19.00;91.70
62424;DHT22;48463;43.604;3.872;2023-08-06T06:11:46;19.00;91.40
62424;DHT22;48463;43.604;3.872;2023-08-06T06:14:13;19.00;91.30
62424;DHT22;48463;43.604;3.872;2023-08-06T06:16:38;19.10;91.10
62424;DHT22;48463;43.604;3.872;2023-08-06T06:19:04;19.10;91.00
62424;DHT22;48463;43.604;3.872;2023-08-06T06:21:29;19.10;90.90
62424;DHT22;48463;43.604;3.872;2023-08-06T06:23:55;19.10;90.80
62424;DHT22;48463;43.604;3.872;2023-08-06T06:26:22;19.30;90.80
62424;DHT22;48463;43.604;3.872;2023-08-06T06:28:47;19.20;90.50
62424;DHT22;48463;43.604;3.872;2023-08-06T06:31:13;19.20;90.60
62424;DHT22;48463;43.604;3.872;2023-08-06T06:33:38;19.30;90.50
62424;DHT22;48463;43.604;3.872;2023-08-06T06:36:04;19.20;90.50
62424;DHT22;48463;43.604;3.872;2023-08-06T06:38:30;19.20;90.50
62424;DHT22;48463;43.604;3.872;2023-08-06T06:40:56;19.40;90.40
62424;DHT22;48463;43.604;3.872;2023-08-06T06:43:23;19.40;90.30
62424;DHT22;48463;43.604;3.872;2023-08-06T06:45:59;19.50;90.30
62424;DHT22;48463;43.604;3.872;2023-08-06T06:48:29;19.50;90.20
62424;DHT22;48463;43.604;3.872;2023-08-06T06:50:55;19.50;90.00
62424;DHT22;48463;43.604;3.872;2023-08-06T06:53:21;19.50;90.00
62424;DHT22;48463;43.604;3.872;2023-08-06T06:55:55;19.50;89.70
62424;DHT22;48463;43.604;3.872;2023-08-06T06:58:21;19.60;89.10
62424;DHT22;48463;43.604;3.872;2023-08-06T07:00:49;19.60;89.20
62424;DHT22;48463;43.604;3.872;2023-08-06T07:03:15;19.80;88.90
62424;DHT22;48463;43.604;3.872;2023-08-06T07:05:42;19.80;87.90
62424;DHT22;48463;43.604;3.872;2023-08-06T07:08:08;19.90;87.50
62424;DHT22;48463;43.604;3.872;2023-08-06T07:10:34;20.00;86.70
62424;DHT22;48463;43.604;3.872;2023-08-06T07:12:59;19.90;86.90
62424;DHT22;48463;43.604;3.872;2023-08-06T07:15:25;20.00;86.20
62424;DHT22;48463;43.604;3.872;2023-08-06T07:17:51;20.10;86.20
62424;DHT22;48463;43.604;3.872;2023-08-06T07:20:17;20.20;86.10
62424;DHT22;48463;43.604;3.872;2023-08-06T07:22:43;20.20;85.90
62424;DHT22;48463;43.604;3.872;2023-08-06T07:25:09;20.30;85.70
62424;DHT22;48463;43.604;3.872;2023-08-06T07:27:34;20.40;85.90
62424;DHT22;48463;43.604;3.872;2023-08-06T07:30:00;20.40;85.80
62424;DHT22;48463;43.604;3.872;2023-08-06T07:32:26;20.30;85.90
62424;DHT22;48463;43.604;3.872;2023-08-06T07:34:53;20.60;86.10
62424;DHT22;48463;43.604;3.872;2023-08-06T07:37:22;20.60;85.90
62424;DHT22;48463;43.604;3.872;2023-08-06T07:39:48;20.70;85.70
62424;DHT22;48463;43.604;3.872;2023-08-06T07:42:14;20.90;85.40
62424;DHT22;48463;43.604;3.872;2023-08-06T07:44:39;21.00;85.30
62424;DHT22;48463;43.604;3.872;2023-08-06T07:47:05;21.10;85.00
62424;DHT22;48463;43.604;3.872;2023-08-06T07:49:31;21.30;84.60
62424;DHT22;48463;43.604;3.872;2023-08-06T07:51:56;20.90;84.70
62424;DHT22;48463;43.604;3.872;2023-08-06T07:54:22;21.30;84.50
62424;DHT22;48463;43.604;3.872;2023-08-06T07:56:49;21.10;84.30
62424;DHT22;48463;43.604;3.872;2023-08-06T07:59:15;21.30;84.50
62424;DHT22;48463;43.604;3.872;2023-08-06T08:01:40;21.30;83.90
62424;DHT22;48463;43.604;3.872;2023-08-06T08:04:06;21.40;83.30
62424;DHT22;48463;43.604;3.872;2023-08-06T08:06:33;21.40;83.10
62424;DHT22;48463;43.604;3.872;2023-08-06T08:08:58;21.30;83.00
62424;DHT22;48463;43.604;3.872;2023-08-06T08:11:25;21.40;83.00
62424;DHT22;48463;43.604;3.872;2023-08-06T08:13:51;21.50;82.40
62424;DHT22;48463;43.604;3.872;2023-08-06T08:16:17;21.70;82.30
62424;DHT22;48463;43.604;3.872;2023-08-06T08:18:42;21.60;83.00
62424;DHT22;48463;43.604;3.872;2023-08-06T08:21:08;21.80;82.50
62424;DHT22;48463;43.604;3.872;2023-08-06T08:23:33;21.80;83.10
62424;DHT22;48463;43.604;3.872;2023-08-06T08:25:59;21.90;82.80
62424;DHT22;48463;43.604;3.872;2023-08-06T08:28:27;21.90;82.60
62424;DHT22;48463;43.604;3.872;2023-08-06T08:30:53;22.10;82.50
62424;DHT22;48463;43.604;3.872;2023-08-06T08:33:18;22.00;82.60
62424;DHT22;48463;43.604;3.872;2023-08-06T08:35:45;22.00;82.30
62424;DHT22;48463;43.604;3.872;2023-08-06T08:38:11;22.20;82.20
62424;DHT22;48463;43.604;3.872;2023-08-06T08:40:42;22.00;82.00
62424;DHT22;48463;43.604;3.872;2023-08-06T08:43:11;22.30;81.80
62424;DHT22;48463;43.604;3.872;2023-08-06T08:45:39;22.10;81.30
62424;DHT22;48463;43.604;3.872;2023-08-06T08:48:09;22.70;81.10
62424;DHT22;48463;43.604;3.872;2023-08-06T08:50:35;22.40;80.70
62424;DHT22;48463;43.604;3.872;2023-08-06T08:53:01;22.50;80.40
62424;DHT22;48463;43.604;3.872;2023-08-06T08:55:27;22.40;80.20
62424;DHT22;48463;43.604;3.872;2023-08-06T08:57:53;22.50;80.10
62424;DHT22;48463;43.604;3.872;2023-08-06T09:00:19;22.60;80.10
62424;DHT22;48463;43.604;3.872;2023-08-06T09:02:45;22.70;80.10
62424;DHT22;48463;43.604;3.872;2023-08-06T09:05:13;22.50;80.00
62424;DHT22;48463;43.604;3.872;2023-08-06T09:07:42;22.20;80.20
62424;DHT22;48463;43.604;3.872;2023-08-06T09:10:11;22.50;80.00
62424;DHT22;48463;43.604;3.872;2023-08-06T09:12:39;22.40;79.60
62424;DHT22;48463;43.604;3.872;2023-08-06T09:15:05;22.30;80.10
62424;DHT22;48463;43.604;3.872;2023-08-06T09:17:31;22.40;80.10
62424;DHT22;48463;43.604;3.872;2023-08-06T09:19:57;22.40;79.90
62424;DHT22;48463;43.604;3.872;2023-08-06T09:22:23;22.30;79.90
62424;DHT22;48463;43.604;3.872;2023-08-06T09:24:49;22.60;80.00
62424;DHT22;48463;43.604;3.872;2023-08-06T09:27:15;22.60;79.70
62424;DHT22;48463;43.604;3.872;2023-08-06T09:29:45;22.70;79.80
62424;DHT22;48463;43.604;3.872;2023-08-06T09:32:14;22.70;79.10
62424;DHT22;48463;43.604;3.872;2023-08-06T09:34:43;22.70;79.20
62424;DHT22;48463;43.604;3.872;2023-08-06T09:37:09;23.00;78.10
62424;DHT22;48463;43.604;3.872;2023-08-06T09:39:39;22.70;77.60
62424;DHT22;48463;43.604;3.872;2023-08-06T09:42:08;22.90;78.00
62424;DHT22;48463;43.604;3.872;2023-08-06T09:44:34;22.70;77.70
62424;DHT22;48463;43.604;3.872;2023-08-06T09:47:02;22.60;77.00
62424;DHT22;48463;43.604;3.872;2023-08-06T09:49:48;22.80;77.00
62424;DHT22;48463;43.604;3.872;2023-08-06T09:52:17;22.80;77.00
62424;DHT22;48463;43.604;3.872;2023-08-06T09:54:43;22.90;76.90
62424;DHT22;48463;43.604;3.872;2023-08-06T09:57:09;22.50;77.00
62424;DHT22;48463;43.604;3.872;2023-08-06T09:59:36;23.20;77.30
62424;DHT22;48463;43.604;3.872;2023-08-06T10:02:11;23.50;76.40
62424;DHT22;48463;43.604;3.872;2023-08-06T10:04:37;23.10;76.70
62424;DHT22;48463;43.604;3.872;2023-08-06T10:07:03;23.00;76.80
62424;DHT22;48463;43.604;3.872;2023-08-06T10:09:30;22.90;76.00
62424;DHT22;48463;43.604;3.872;2023-08-06T10:11:56;23.10;76.50
62424;DHT22;48463;43.604;3.872;2023-08-06T10:14:27;23.40;76.20
62424;DHT22;48463;43.604;3.872;2023-08-06T10:16:54;23.40;75.90
62424;DHT22;48463;43.604;3.872;2023-08-06T10:19:23;23.20;75.50
62424;DHT22;48463;43.604;3.872;2023-08-06T10:22:08;23.40;75.30
62424;DHT22;48463;43.604;3.872;2023-08-06T10:24:51;23.60;75.30
62424;DHT22;48463;43.604;3.872;2023-08-06T10:30:28;24.10;74.90
62424;DHT22;48463;43.604;3.872;2023-08-06T10:32:56;23.60;74.70
62424;DHT22;48463;43.604;3.872;2023-08-06T10:35:34;23.70;75.20
62424;DHT22;48463;43.604;3.872;2023-08-06T10:38:04;23.90;75.80
62424;DHT22;48463;43.604;3.872;2023-08-06T10:40:31;23.70;74.90
62424;DHT22;48463;43.604;3.872;2023-08-06T10:43:02;23.50;75.30
62424;DHT22;48463;43.604;3.872;2023-08-06T10:45:28;23.80;75.50
62424;DHT22;48463;43.604;3.872;2023-08-06T10:47:55;23.60;74.70
62424;DHT22;48463;43.604;3.872;2023-08-06T10:50:24;23.50;74.80
62424;DHT22;48463;43.604;3.872;2023-08-06T10:52:50;24.10;74.70
62424;DHT22;48463;43.604;3.872;2023-08-06T10:57:49;23.80;73.70
62424;DHT22;48463;43.604;3.872;2023-08-06T11:00:15;23.70;73.80
62424;DHT22;48463;43.604;3.872;2023-08-06T11:02:41;23.70;73.70
62424;DHT22;48463;43.604;3.872;2023-08-06T11:05:10;23.70;74.50
62424;DHT22;48463;43.604;3.872;2023-08-06T11:07:37;24.00;73.90
62424;DHT22;48463;43.604;3.872;2023-08-06T11:10:10;24.20;73.60
62424;DHT22;48463;43.604;3.872;2023-08-06T11:12:37;24.40;72.60
62424;DHT22;48463;43.604;3.872;2023-08-06T11:15:03;24.40;72.80
62424;DHT22;48463;43.604;3.872;2023-08-06T11:17:30;24.30;73.00
62424;DHT22;48463;43.604;3.872;2023-08-06T11:19:59;24.40;72.60
62424;DHT22;48463;43.604;3.872;2023-08-06T11:22:26;24.60;72.60
62424;DHT22;48463;43.604;3.872;2023-08-06T11:24:53;24.20;72.60
62424;DHT22;48463;43.604;3.872;2023-08-06T11:27:19;24.70;72.70
62424;DHT22;48463;43.604;3.872;2023-08-06T11:29:44;24.60;72.10
62424;DHT22;48463;43.604;3.872;2023-08-06T11:32:11;24.80;71.70
62424;DHT22;48463;43.604;3.872;2023-08-06T11:34:38;24.40;72.00
62424;DHT22;48463;43.604;3.872;2023-08-06T11:37:05;24.40;72.00
62424;DHT22;48463;43.604;3.872;2023-08-06T11:39:38;24.20;71.70
62424;DHT22;48463;43.604;3.872;2023-08-06T11:42:07;24.40;70.40
62424;DHT22;48463;43.604;3.872;2023-08-06T11:44:35;24.50;70.60
62424;DHT22;48463;43.604;3.872;2023-08-06T11:47:05;24.30;70.40
62424;DHT22;48463;43.604;3.872;2023-08-06T11:49:45;24.30;70.60
62424;DHT22;48463;43.604;3.872;2023-08-06T11:54:39;24.70;70.50
62424;DHT22;48463;43.604;3.872;2023-08-06T11:57:08;24.70;70.10
62424;DHT22;48463;43.604;3.872;2023-08-06T11:59:34;24.90;69.70
62424;DHT22;48463;43.604;3.872;2023-08-06T12:02:02;25.10;69.80
62424;DHT22;48463;43.604;3.872;2023-08-06T12:04:27;24.80;70.10
62424;DHT22;48463;43.604;3.872;2023-08-06T12:06:53;24.80;70.00
62424;DHT22;48463;43.604;3.872;2023-08-06T12:09:19;24.90;69.80
62424;DHT22;48463;43.604;3.872;2023-08-06T12:11:46;24.90;70.20
62424;DHT22;48463;43.604;3.872;2023-08-06T12:14:11;25.20;69.20
62424;DHT22;48463;43.604;3.872;2023-08-06T12:16:37;25.20;69.60
62424;DHT22;48463;43.604;3.872;2023-08-06T12:19:02;25.50;69.40
62424;DHT22;48463;43.604;3.872;2023-08-06T12:21:29;25.10;68.70
62424;DHT22;48463;43.604;3.872;2023-08-06T12:23:55;25.50;68.50
62424;DHT22;48463;43.604;3.872;2023-08-06T12:26:20;25.70;68.80
62424;DHT22;48463;43.604;3.872;2023-08-06T12:28:46;25.70;68.30
62424;DHT22;48463;43.604;3.872;2023-08-06T12:31:12;25.70;68.50
62424;DHT22;48463;43.604;3.872;2023-08-06T12:33:37;25.70;67.40
62424;DHT22;48463;43.604;3.872;2023-08-06T12:36:03;26.00;67.20
62424;DHT22;48463;43.604;3.872;2023-08-06T12:38:29;25.90;67.20
62424;DHT22;48463;43.604;3.872;2023-08-06T12:41:01;25.90;67.10
62424;DHT22;48463;43.604;3.872;2023-08-06T12:43:27;25.70;67.30
62424;DHT22;48463;43.604;3.872;2023-08-06T12:45:53;25.30;68.00
62424;DHT22;48463;43.604;3.872;2023-08-06T12:48:19;25.30;68.50
62424;DHT22;48463;43.604;3.872;2023-08-06T12:50:44;25.20;68.90
62424;DHT22;48463;43.604;3.872;2023-08-06T12:53:10;25.40;68.10
62424;DHT22;48463;43.604;3.872;2023-08-06T12:55:36;25.60;67.90
62424;DHT22;48463;43.604;3.872;2023-08-06T12:58:02;25.50;67.40
62424;DHT22;48463;43.604;3.872;2023-08-06T13:00:27;25.80;67.30
62424;DHT22;48463;43.604;3.872;2023-08-06T13:02:54;25.80;67.30
62424;DHT22;48463;43.604;3.872;2023-08-06T13:05:20;25.60;67.80
62424;DHT22;48463;43.604;3.872;2023-08-06T13:07:46;25.80;67.40
62424;DHT22;48463;43.604;3.872;2023-08-06T13:10:12;25.80;66.90
62424;DHT22;48463;43.604;3.872;2023-08-06T13:12:37;25.80;67.70
62424;DHT22;48463;43.604;3.872;2023-08-06T13:15:03;25.90;67.40
62424;DHT22;48463;43.604;3.872;2023-08-06T13:17:29;25.50;67.70
62424;DHT22;48463;43.604;3.872;2023-08-06T13:19:55;26.10;68.00
62424;DHT22;48463;43.604;3.872;2023-08-06T13:22:20;25.70;67.20
62424;DHT22;48463;43.604;3.872;2023-08-06T13:24:46;26.00;67.10
62424;DHT22;48463;43.604;3.872;2023-08-06T13:27:11;25.90;66.70
62424;DHT22;48463;43.604;3.872;2023-08-06T13:29:37;26.10;67.40
62424;DHT22;48463;43.604;3.872;2023-08-06T13:32:03;25.80;67.40
62424;DHT22;48463;43.604;3.872;2023-08-06T13:34:29;25.70;67.50
62424;DHT22;48463;43.604;3.872;2023-08-06T13:36:54;25.50;67.20
62424;DHT22;48463;43.604;3.872;2023-08-06T13:39:20;25.50;67.20
62424;DHT22;48463;43.604;3.872;2023-08-06T13:41:46;25.40;67.50
62424;DHT22;48463;43.604;3.872;2023-08-06T13:44:11;25.70;67.20
62424;DHT22;48463;43.604;3.872;2023-08-06T13:46:39;25.80;67.40
62424;DHT22;48463;43.604;3.872;2023-08-06T13:49:05;26.30;67.20
62424;DHT22;48463;43.604;3.872;2023-08-06T13:51:30;25.80;66.20
62424;DHT22;48463;43.604;3.872;2023-08-06T13:53:56;26.30;66.50
62424;DHT22;48463;43.604;3.872;2023-08-06T13:56:23;26.30;66.30
62424;DHT22;48463;43.604;3.872;2023-08-06T13:58:49;26.30;66.50
62424;DHT22;48463;43.604;3.872;2023-08-06T14:01:17;26.90;66.30
62424;DHT22;48463;43.604;3.872;2023-08-06T14:03:44;26.10;66.40
62424;DHT22;48463;43.604;3.872;2023-08-06T14:06:10;26.20;66.70
62424;DHT22;48463;43.604;3.872;2023-08-06T14:08:35;26.40;66.70
62424;DHT22;48463;43.604;3.872;2023-08-06T14:11:01;26.30;66.10
62424;DHT22;48463;43.604;3.872;2023-08-06T14:13:27;26.10;66.10
62424;DHT22;48463;43.604;3.872;2023-08-06T14:15:54;26.20;65.80
62424;DHT22;48463;43.604;3.872;2023-08-06T14:18:20;26.10;66.30
62424;DHT22;48463;43.604;3.872;2023-08-06T14:20:46;26.30;66.20
62424;DHT22;48463;43.604;3.872;2023-08-06T14:23:11;26.10;66.00
62424;DHT22;48463;43.604;3.872;2023-08-06T14:25:39;26.00;66.40
62424;DHT22;48463;43.604;3.872;2023-08-06T14:28:05;25.60;66.60
62424;DHT22;48463;43.604;3.872;2023-08-06T14:30:32;26.00;66.70
62424;DHT22;48463;43.604;3.872;2023-08-06T14:32:58;26.00;66.50
62424;DHT22;48463;43.604;3.872;2023-08-06T14:35:25;26.20;66.20
62424;DHT22;48463;43.604;3.872;2023-08-06T14:37:51;26.10;66.50
62424;DHT22;48463;43.604;3.872;2023-08-06T14:40:17;26.70;66.20
62424;DHT22;48463;43.604;3.872;2023-08-06T14:42:42;26.60;65.90
62424;DHT22;48463;43.604;3.872;2023-08-06T14:45:08;26.50;66.20
62424;DHT22;48463;43.604;3.872;2023-08-06T14:47:34;25.80;66.50
62424;DHT22;48463;43.604;3.872;2023-08-06T14:49:59;26.30;66.20
62424;DHT22;48463;43.604;3.872;2023-08-06T14:52:25;26.30;66.10
62424;DHT22;48463;43.604;3.872;2023-08-06T14:54:51;26.90;66.10
62424;DHT22;48463;43.604;3.872;2023-08-06T14:57:18;26.70;65.60
62424;DHT22;48463;43.604;3.872;2023-08-06T14:59:43;26.70;65.60
62424;DHT22;48463;43.604;3.872;2023-08-06T15:02:09;28.40;65.40
62424;DHT22;48463;43.604;3.872;2023-08-06T15:04:35;29.20;64.30
62424;DHT22;48463;43.604;3.872;2023-08-06T15:07:00;29.80;62.70
62424;DHT22;48463;43.604;3.872;2023-08-06T15:09:26;30.00;61.90
62424;DHT22;48463;43.604;3.872;2023-08-06T15:11:51;30.60;61.80
62424;DHT22;48463;43.604;3.872;2023-08-06T15:14:17;30.70;60.90
62424;DHT22;48463;43.604;3.872;2023-08-06T15:16:43;29.90;61.30
62424;DHT22;48463;43.604;3.872;2023-08-06T15:19:08;30.60;60.80
62424;DHT22;48463;43.604;3.872;2023-08-06T15:21:34;30.40;60.70
62424;DHT22;48463;43.604;3.872;2023-08-06T15:24:00;29.30;61.20
62424;DHT22;48463;43.604;3.872;2023-08-06T15:26:27;27.20;62.90
62424;DHT22;48463;43.604;3.872;2023-08-06T15:28:53;26.90;64.00
62424;DHT22;48463;43.604;3.872;2023-08-06T15:31:20;26.50;64.30
62424;DHT22;48463;43.604;3.872;2023-08-06T15:33:47;27.10;64.50
62424;DHT22;48463;43.604;3.872;2023-08-06T15:36:12;27.00;64.40
62424;DHT22;48463;43.604;3.872;2023-08-06T15:38:38;26.80;64.50
62424;DHT22;48463;43.604;3.872;2023-08-06T15:41:03;26.20;64.90